Time;durP1;ratioP1;P1;durP2;ratioP2;P2;SDS_P1;SDS_P2;PMS_P1;PMS_P2;Temp;Humidity;BMP_temperature;BMP_pressure;BME280_temperature;BME280_humidity;BME280_pressure;Samples;Min_cycle;Max_cycle;Signal;HPM_P1;HPM_P2
2021/12/20 00:01:21;;;;;;;48.00;14.43;;;;;;;0.62;100.00;99600.19;5009921;28;20394;-57
2021/12/20 00:03:48;;;;;;;43.80;17.07;;;;;;;0.60;100.00;99584.00;5010974;28;20665;-57
2021/12/20 00:06:15;;;;;;;42.30;16.13;;;;;;;0.64;100.00;99595.81;5011019;28;20374;-59
2021/12/20 00:08:42;;;;;;;58.77;17.07;;;;;;;0.63;100.00;99594.13;5010831;28;20305;-59
2021/12/20 00:11:09;;;;;;;49.17;17.50;;;;;;;0.65;100.00;99578.63;5010098;28;20630;-56
2021/12/20 00:13:37;;;;;;;42.23;16.07;;;;;;;0.65;100.00;99583.78;5011252;28;20212;-56
2021/12/20 00:16:04;;;;;;;44.13;15.90;;;;;;;0.63;100.00;99581.28;5010583;28;20759;-57
2021/12/20 00:18:31;;;;;;;46.83;17.70;;;;;;;0.66;100.00;99573.47;4995882;28;20196;-57
2021/12/20 00:20:59;;;;;;;44.53;17.20;;;;;;;0.68;100.00;99579.38;4990782;28;20280;-58
2021/12/20 00:23:26;;;;;;;42.60;16.60;;;;;;;0.68;100.00;99574.22;4990804;28;20603;-59
2021/12/20 00:25:53;;;;;;;41.93;16.53;;;;;;;0.67;100.00;99577.69;4990292;28;20216;-57
2021/12/20 00:28:21;;;;;;;41.87;16.17;;;;;;;0.67;100.00;99564.84;4991130;28;20196;-55
2021/12/20 00:30:49;;;;;;;38.67;14.47;;;;;;;0.70;100.00;99575.00;4987949;28;20765;-58
2021/12/20 00:33:16;;;;;;;40.43;15.03;;;;;;;0.71;100.00;99574.09;4989802;28;20235;-59
2021/12/20 00:35:43;;;;;;;34.83;15.07;;;;;;;0.68;100.00;99571.66;4970542;28;20240;-54
2021/12/20 00:40:55;;;;;;;40.93;14.63;;;;;;;0.66;100.00;99564.91;4971403;28;20192;-53
2021/12/20 00:43:22;;;;;;;49.10;21.20;;;;;;;0.72;100.00;99565.50;4970048;28;20438;-51
2021/12/20 00:45:50;;;;;;;39.10;17.63;;;;;;;0.75;100.00;99561.13;4971497;28;20584;-52
2021/12/20 00:48:17;;;;;;;39.17;15.40;;;;;;;0.75;100.00;99561.94;4971625;28;20719;-53
2021/12/20 00:50:45;;;;;;;39.30;14.70;;;;;;;0.75;100.00;99561.94;4993130;28;20855;-52
2021/12/20 00:53:13;;;;;;;35.40;14.77;;;;;;;0.76;100.00;99555.09;5009884;28;20242;-53
2021/12/20 00:55:40;;;;;;;30.17;13.07;;;;;;;0.84;100.00;99560.72;5009667;28;20279;-54
2021/12/20 00:58:07;;;;;;;33.17;13.67;;;;;;;0.75;100.00;99561.13;5009726;28;20279;-56
2021/12/20 01:00:36;;;;;;;29.07;12.57;;;;;;;0.78;100.00;99554.09;5009395;28;20191;-52
2021/12/20 01:03:07;;;;;;;28.50;12.73;;;;;;;0.81;100.00;99559.09;5010201;28;20286;-58
2021/12/20 01:05:35;;;;;;;30.23;12.90;;;;;;;0.78;100.00;99553.28;5010470;28;20189;-55
2021/12/20 01:08:05;;;;;;;30.13;12.60;;;;;;;0.84;100.00;99547.88;5010271;28;20185;-52
2021/12/20 01:10:32;;;;;;;31.40;14.00;;;;;;;0.81;100.00;99548.81;5010736;28;20688;-56
2021/12/20 01:13:01;;;;;;;33.47;13.93;;;;;;;0.90;100.00;99542.47;5013750;28;20557;-51
2021/12/20 01:15:32;;;;;;;34.27;13.63;;;;;;;0.87;100.00;99529.75;5013397;28;20284;-53
2021/12/20 01:18:00;;;;;;;31.50;13.10;;;;;;;0.83;100.00;99541.88;5013948;28;20748;-54
2021/12/20 01:20:29;;;;;;;32.57;13.20;;;;;;;0.91;100.00;99535.56;5013013;28;20187;-51
2021/12/20 01:22:56;;;;;;;38.17;15.60;;;;;;;0.92;100.00;99532.09;5012718;28;20217;-55
2021/12/20 01:25:24;;;;;;;35.47;14.97;;;;;;;0.89;100.00;99533.09;5013576;28;20284;-54
2021/12/20 01:27:51;;;;;;;37.67;15.27;;;;;;;0.86;100.00;99534.03;5013794;28;20184;-52
2021/12/20 01:30:20;;;;;;;41.97;15.50;;;;;;;0.86;100.00;99534.03;5012279;28;20185;-56
2021/12/20 01:32:47;;;;;;;36.43;15.97;;;;;;;0.88;100.00;99536.56;4998422;28;20244;-53
2021/12/20 01:35:16;;;;;;;42.50;15.20;;;;;;;0.94;100.00;99538.88;4990909;28;20284;-58
2021/12/20 01:37:44;;;;;;;43.70;16.83;;;;;;;0.90;100.00;99536.47;4993205;28;20197;-56
2021/12/20 01:40:14;;;;;;;42.53;17.13;;;;;;;0.90;100.00;99539.06;4993073;28;20186;-55
2021/12/20 01:42:43;;;;;;;43.40;16.33;;;;;;;0.95;100.00;99534.53;4993498;28;20190;-51
2021/12/20 01:45:14;;;;;;;42.50;16.57;;;;;;;0.93;100.00;99533.78;4992727;28;20272;-57
2021/12/20 01:47:44;;;;;;;41.27;16.97;;;;;;;0.86;100.00;99530.66;4993556;28;20682;-56
2021/12/20 01:50:18;;;;;;;43.47;17.03;;;;;;;0.87;100.00;99522.03;4999253;28;20224;-50
2021/12/20 01:52:46;;;;;;;36.20;14.03;;;;;;;0.86;100.00;99525.50;5012174;28;20939;-54
2021/12/20 01:55:15;;;;;;;38.37;14.20;;;;;;;0.82;100.00;99535.06;5012953;28;20189;-53
2021/12/20 01:57:42;;;;;;;32.20;13.40;;;;;;;0.84;100.00;99527.31;5012605;28;20216;-54
2021/12/20 02:00:12;;;;;;;36.17;14.30;;;;;;;0.84;100.00;99524.75;5012278;28;20693;-54
2021/12/20 02:02:51;;;;;;;36.80;12.87;;;;;;;0.80;100.00;99528.34;5013078;28;20196;-51
2021/12/20 02:05:22;;;;;;;28.27;12.50;;;;;;;0.87;100.00;99527.19;5013474;28;20191;-52
2021/12/20 02:07:57;;;;;;;28.13;12.43;;;;;;;0.84;100.00;99519.59;5012693;28;20204;-51
2021/12/20 02:10:24;;;;;;;29.67;12.33;;;;;;;0.86;100.00;99522.94;5012436;28;20615;-53
2021/12/20 02:12:51;;;;;;;26.40;11.73;;;;;;;0.91;100.00;99515.00;5012798;28;20224;-52
2021/12/20 02:15:18;;;;;;;30.13;13.27;;;;;;;0.92;100.00;99520.09;5012734;28;20251;-51
2021/12/20 02:17:45;;;;;;;29.67;12.30;;;;;;;0.97;100.00;99522.47;5013144;28;20264;-51
2021/12/20 02:20:25;;;;;;;24.97;11.47;;;;;;;0.97;100.00;99518.16;5011928;28;20259;-51
2021/12/20 02:22:54;;;;;;;27.50;12.33;;;;;;;0.93;100.00;99516.63;5012212;28;20195;-52
2021/12/20 02:25:21;;;;;;;26.33;11.57;;;;;;;0.98;100.00;99514.69;5012723;28;20216;-57
2021/12/20 02:27:48;;;;;;;23.10;11.13;;;;;;;0.97;100.00;99517.31;5012842;28;20279;-53
2021/12/20 02:30:37;;;;;;;26.73;11.87;;;;;;;0.99;100.00;99520.66;5011820;28;20279;-57
2021/12/20 02:38:35;;;;;;;26.90;11.83;;;;;;;0.96;100.00;99506.22;4992510;28;20654;-53
2021/12/20 02:41:06;;;;;;;21.63;10.53;;;;;;;1.05;100.00;99504.13;4992346;28;20187;-54
2021/12/20 02:43:37;;;;;;;26.27;10.77;;;;;;;1.06;100.00;99505.81;4992394;28;20228;-53
2021/12/20 02:46:07;;;;;;;30.30;12.40;;;;;;;1.03;100.00;99501.63;4992193;28;20608;-57
2021/12/20 02:48:34;;;;;;;35.67;13.00;;;;;;;1.01;100.00;99501.72;4992762;28;20533;-57
2021/12/20 02:51:02;;;;;;;34.70;15.30;;;;;;;0.98;100.00;99501.84;5005286;28;20621;-51
2021/12/20 02:53:29;;;;;;;37.63;15.43;;;;;;;0.92;100.00;99503.84;5011794;28;20208;-55
2021/12/20 02:55:56;;;;;;;35.77;15.07;;;;;;;0.98;100.00;99503.56;5012135;28;20239;-52
2021/12/20 02:58:22;;;;;;;40.27;16.03;;;;;;;1.05;100.00;99504.13;5012058;28;20706;-54
2021/12/20 03:00:49;;;;;;;38.17;16.67;;;;;;;1.00;100.00;99496.63;5010864;28;20701;-52
2021/12/20 03:03:16;;;;;;;36.77;15.63;;;;;;;0.98;100.00;99495.84;5012146;28;20569;-51
2021/12/20 03:05:43;;;;;;;37.57;16.67;;;;;;;0.97;100.00;99500.19;5011817;28;20219;-54
2021/12/20 03:08:11;;;;;;;34.27;14.23;;;;;;;0.97;100.00;99489.88;5011942;28;20196;-53
2021/12/20 03:10:41;;;;;;;29.53;12.80;;;;;;;0.93;100.00;99493.50;5010924;28;20662;-52
2021/12/20 03:13:09;;;;;;;27.93;12.83;;;;;;;0.95;100.00;99490.84;5012049;28;20201;-54
2021/12/20 03:15:36;;;;;;;32.90;14.33;;;;;;;0.95;100.00;99495.97;5011150;28;20245;-53
2021/12/20 03:18:03;;;;;;;28.70;12.47;;;;;;;0.97;100.00;99487.31;5011927;28;20192;-55
2021/12/20 03:20:30;;;;;;;32.67;13.13;;;;;;;1.00;100.00;99497.47;4990844;28;20200;-52
2021/12/20 03:22:57;;;;;;;29.27;12.97;;;;;;;1.01;100.00;99488.00;4991331;28;20318;-58
2021/12/20 03:25:25;;;;;;;28.93;12.40;;;;;;;1.08;100.00;99496.25;4992086;28;20189;-53
2021/12/20 03:27:52;;;;;;;24.30;11.27;;;;;;;1.06;100.00;99491.19;4991839;28;20560;-54
2021/12/20 03:30:19;;;;;;;21.43;10.63;;;;;;;1.06;100.00;99488.63;4990855;28;20329;-54
2021/12/20 03:32:46;;;;;;;27.17;12.40;;;;;;;1.12;100.00;99490.06;4991748;28;20213;-51
2021/12/20 03:35:13;;;;;;;25.93;11.47;;;;;;;1.11;100.00;99483.25;4990034;28;20559;-53
2021/12/20 03:37:40;;;;;;;23.00;11.07;;;;;;;1.06;100.00;99485.25;4991596;28;20199;-55
2021/12/20 03:40:08;;;;;;;29.53;12.47;;;;;;;1.09;100.00;99491.06;4988417;28;20208;-55
2021/12/20 03:42:39;;;;;;;35.30;16.38;;;;;;;1.06;100.00;99480.91;4990816;28;20424;-53
2021/12/20 03:45:07;;;;;;;33.60;15.43;;;;;;;1.03;100.00;99486.19;4991125;28;20201;-52
2021/12/20 03:47:33;;;;;;;33.20;14.23;;;;;;;1.05;100.00;99481.81;4990629;28;20193;-58
2021/12/20 03:50:01;;;;;;;31.03;14.23;;;;;;;1.06;100.00;99480.91;4995811;28;20238;-54
2021/12/20 03:52:27;;;;;;;32.57;13.33;;;;;;;1.01;100.00;99481.13;4993321;28;20206;-53
2021/12/20 03:54:54;;;;;;;29.13;13.13;;;;;;;1.06;100.00;99470.63;4991095;28;20586;-56
2021/12/20 03:57:20;;;;;;;31.37;12.23;;;;;;;1.07;100.00;99479.16;4992057;28;20196;-53
2021/12/20 03:59:49;;;;;;;27.67;11.80;;;;;;;1.10;100.00;99482.44;4990614;28;20194;-55
2021/12/20 04:02:18;;;;;;;29.87;12.20;;;;;;;1.12;100.00;99475.50;4989731;28;20181;-51
2021/12/20 04:04:44;;;;;;;29.20;12.37;;;;;;;1.14;100.00;99480.56;4990059;28;20228;-53
2021/12/20 04:07:11;;;;;;;30.07;12.77;;;;;;;1.12;100.00;99477.22;4991704;28;20283;-52
2021/12/20 04:09:38;;;;;;;29.43;13.10;;;;;;;1.05;100.00;99475.84;4990092;28;20197;-58
2021/12/20 04:12:05;;;;;;;33.37;13.97;;;;;;;1.08;100.00;99473.13;4991544;28;20777;-54
2021/12/20 04:14:32;;;;;;;30.30;13.07;;;;;;;1.02;100.00;99475.09;4990088;28;20398;-55
2021/12/20 04:17:00;;;;;;;30.47;12.70;;;;;;;1.09;100.00;99477.34;4999664;23;20595;-60
2021/12/20 04:19:27;;;;;;;29.07;13.83;;;;;;;1.08;100.00;99475.69;4991048;28;20280;-60
2021/12/20 04:21:53;;;;;;;29.43;13.07;;;;;;;1.10;100.00;99479.03;4990024;28;20182;-60
2021/12/20 04:24:20;;;;;;;27.40;13.23;;;;;;;1.10;100.00;99472.16;4991298;28;20193;-59
2021/12/20 04:26:47;;;;;;;33.37;14.10;;;;;;;1.09;100.00;99470.50;4991469;28;20577;-60
2021/12/20 04:29:14;;;;;;;35.90;14.57;;;;;;;1.08;100.00;99475.69;4991899;28;20216;-60
2021/12/20 04:31:40;;;;;;;37.23;15.00;;;;;;;1.01;100.00;99470.84;4990954;28;20201;-60
2021/12/20 04:34:09;;;;;;;36.70;15.20;;;;;;;1.00;100.00;99471.75;4991589;28;20186;-60
2021/12/20 04:36:35;;;;;;;32.47;13.70;;;;;;;1.02;100.00;99475.09;4991770;28;20296;-60
2021/12/20 04:39:06;;;;;;;35.23;14.60;;;;;;;1.05;100.00;99479.25;4991709;28;20734;-60
2021/12/20 04:41:33;;;;;;;31.60;13.70;;;;;;;1.02;100.00;99481.97;4990783;28;20379;-60
2021/12/20 04:44:00;;;;;;;31.13;13.53;;;;;;;0.98;100.00;99481.28;4995610;28;20558;-60
2021/12/20 04:46:26;;;;;;;29.07;12.23;;;;;;;1.07;100.00;99479.16;4995321;28;20296;-60
2021/12/20 04:48:53;;;;;;;27.60;11.53;;;;;;;1.06;100.00;99480.09;4995477;28;20185;-60
2021/12/20 04:51:22;;;;;;;23.33;11.10;;;;;;;1.11;100.00;99473.84;4994538;28;20248;-60
2021/12/20 04:53:48;;;;;;;25.40;11.80;;;;;;;1.05;100.00;99478.44;4994901;28;20277;-61
2021/12/20 04:56:15;;;;;;;28.53;11.63;;;;;;;1.05;100.00;99481.00;4995207;28;20670;-60
2021/12/20 04:58:43;;;;;;;26.30;11.43;;;;;;;1.07;100.00;99484.31;4983997;28;20216;-60
2021/12/20 05:01:10;;;;;;;28.43;11.73;;;;;;;1.10;100.00;99477.31;4996576;28;20193;-59
2021/12/20 05:03:36;;;;;;;24.20;11.07;;;;;;;1.09;100.00;99483.34;4990842;28;20655;-59
2021/12/20 05:06:03;;;;;;;22.03;9.93;;;;;;;1.06;100.00;99474.97;4994059;28;20209;-60
2021/12/20 05:08:35;;;;;;;21.97;10.20;;;;;;;1.03;100.00;99484.47;4993341;28;20550;-60
2021/12/20 05:11:03;;;;;;;23.40;10.43;;;;;;;1.06;100.00;99485.25;4994141;28;20243;-59
2021/12/20 05:13:31;;;;;;;25.17;11.50;;;;;;;1.05;100.00;99486.16;4994223;28;20213;-60
2021/12/20 05:15:59;;;;;;;25.50;11.17;;;;;;;1.08;100.00;99481.69;4994962;28;20220;-60
2021/12/20 05:18:26;;;;;;;27.27;11.93;;;;;;;1.10;100.00;99484.16;5013835;28;20772;-60
2021/12/20 05:20:55;;;;;;;22.83;11.33;;;;;;;1.10;100.00;99477.31;5012867;28;20243;-60
2021/12/20 05:23:23;;;;;;;17.87;9.27;;;;;;;1.11;100.00;99480.69;5014054;28;20276;-60
2021/12/20 05:25:51;;;;;;;18.80;8.87;;;;;;;1.14;100.00;99477.97;5013996;28;20694;-60
2021/12/20 05:28:18;;;;;;;24.53;10.97;;;;;;;1.16;100.00;99476.19;5013205;28;20224;-60
2021/12/20 05:30:49;;;;;;;25.87;11.40;;;;;;;1.17;100.00;99483.00;5013217;28;20275;-59
2021/12/20 05:33:15;;;;;;;27.37;12.13;;;;;;;1.18;100.00;99482.09;5013568;28;20216;-60
2021/12/20 05:35:42;;;;;;;31.00;13.63;;;;;;;1.20;100.00;99480.28;5013297;28;20702;-60
2021/12/20 05:38:09;;;;;;;47.30;22.20;;;;;;;1.16;100.00;99491.59;5013538;28;20235;-60
2021/12/20 05:40:36;;;;;;;31.20;15.23;;;;;;;1.18;100.00;99479.50;5013044;28;20215;-60
2021/12/20 05:43:04;;;;;;;26.52;13.80;;;;;;;1.17;100.00;99483.84;5012369;28;20469;-60
2021/12/20 05:45:31;;;;;;;21.10;10.67;;;;;;;1.18;100.00;99492.38;5013085;28;20295;-60
2021/12/20 05:47:58;;;;;;;21.83;11.10;;;;;;;1.18;100.00;99484.66;4994300;28;20567;-59
2021/12/20 05:50:25;;;;;;;19.93;10.00;;;;;;;1.20;100.00;99482.03;4992182;28;20264;-60
2021/12/20 05:52:53;;;;;;;19.97;8.57;;;;;;;1.15;100.00;99490.78;4992572;28;20750;-59
2021/12/20 05:55:20;;;;;;;15.33;7.53;;;;;;;1.17;100.00;99493.28;4987067;28;20216;-59
2021/12/20 05:57:47;;;;;;;16.33;9.13;;;;;;;1.19;100.00;99496.63;4990455;28;20200;-58
2021/12/20 06:00:18;;;;;;;17.33;9.00;;;;;;;1.21;100.00;99494.81;4992081;28;20193;-60
2021/12/20 06:02:48;;;;;;;18.80;8.93;;;;;;;1.22;100.00;99490.50;5007203;28;20192;-59
2021/12/20 06:05:15;;;;;;;19.50;9.17;;;;;;;1.21;100.00;99496.56;4994701;28;20214;-60
2021/12/20 06:07:42;;;;;;;17.13;8.30;;;;;;;1.19;100.00;99499.19;4993251;28;20219;-60
2021/12/20 06:10:14;;;;;;;17.73;9.37;;;;;;;1.19;100.00;99491.47;4992509;28;20286;-60
2021/12/20 06:12:42;;;;;;;13.90;7.50;;;;;;;1.16;100.00;99494.19;4993442;28;20205;-59
2021/12/20 06:15:10;;;;;;;14.37;8.10;;;;;;;1.17;100.00;99494.13;4993248;28;20198;-59
2021/12/20 06:17:38;;;;;;;15.90;7.67;;;;;;;1.22;100.00;99498.22;4992738;28;20622;-58
2021/12/20 06:20:08;;;;;;;16.17;8.23;;;;;;;1.21;100.00;99494.81;4992672;28;20272;-60
2021/12/20 06:22:35;;;;;;;17.50;7.70;;;;;;;1.18;100.00;99490.66;4993081;28;20185;-60
2021/12/20 06:25:02;;;;;;;16.13;7.70;;;;;;;1.21;100.00;99489.66;4992787;28;20244;-59
2021/12/20 06:27:29;;;;;;;13.57;7.30;;;;;;;1.18;100.00;99495.78;4993211;28;20221;-60
2021/12/20 06:29:55;;;;;;;13.57;7.23;;;;;;;1.13;100.00;99505.44;4992488;28;20189;-60
2021/12/20 06:32:22;;;;;;;13.20;7.33;;;;;;;1.14;100.00;99504.56;4992490;28;20280;-60
2021/12/20 06:34:50;;;;;;;13.33;6.57;;;;;;;1.12;100.00;99505.50;4993195;28;20195;-60
2021/12/20 06:37:17;;;;;;;12.67;7.03;;;;;;;1.16;100.00;99507.03;4993062;28;20237;-60
2021/12/20 06:39:44;;;;;;;12.60;7.10;;;;;;;1.17;100.00;99508.72;4991690;28;21014;-60
2021/12/20 06:42:10;;;;;;;13.30;7.00;;;;;;;1.19;100.00;99499.19;4992958;28;20296;-60
2021/12/20 06:44:37;;;;;;;10.30;6.23;;;;;;;1.21;100.00;99501.69;4992491;28;20288;-60
2021/12/20 06:47:04;;;;;;;11.67;7.40;;;;;;;1.22;100.00;99505.94;4992428;28;20208;-60
2021/12/20 06:49:31;;;;;;;12.23;6.90;;;;;;;1.21;100.00;99510.25;4993715;28;20193;-59
2021/12/20 06:52:01;;;;;;;13.43;7.37;;;;;;;1.20;100.00;99500.84;5012304;28;20856;-60
2021/12/20 06:54:27;;;;;;;16.87;7.87;;;;;;;1.18;100.00;99508.66;5011853;28;20194;-60
2021/12/20 06:56:54;;;;;;;13.03;7.23;;;;;;;1.21;100.00;99510.25;5011896;28;20213;-59
2021/12/20 06:59:22;;;;;;;11.93;6.90;;;;;;;1.16;100.00;99502.75;5012084;28;20272;-60
2021/12/20 07:01:49;;;;;;;13.53;8.33;;;;;;;1.15;100.00;99502.81;4991580;28;20273;-59
2021/12/20 07:04:16;;;;;;;16.60;7.80;;;;;;;1.22;100.00;99511.09;4992808;28;20244;-60
2021/12/20 07:06:43;;;;;;;14.97;8.33;;;;;;;1.21;100.00;99514.56;4992371;28;20209;-59
2021/12/20 07:09:12;;;;;;;12.53;7.87;;;;;;;1.24;100.00;99514.44;4991708;28;20228;-60
2021/12/20 07:11:41;;;;;;;15.40;8.53;;;;;;;1.25;100.00;99519.47;4991877;28;20185;-58
2021/12/20 07:14:08;;;;;;;15.40;8.33;;;;;;;1.26;100.00;99517.75;4992395;28;20223;-60
2021/12/20 07:16:36;;;;;;;15.13;8.10;;;;;;;1.27;100.00;99527.16;4991833;28;20209;-59
2021/12/20 07:19:05;;;;;;;16.70;8.70;;;;;;;1.29;100.00;99523.59;4992323;28;20178;-59
2021/12/20 07:21:31;;;;;;;15.23;8.27;;;;;;;1.29;100.00;99523.59;4991407;28;20271;-59
2021/12/20 07:23:58;;;;;;;15.60;8.17;;;;;;;1.32;100.00;99526.03;4992045;28;20224;-59
2021/12/20 07:26:26;;;;;;;13.37;7.67;;;;;;;1.26;100.00;99528.06;4992173;28;20213;-59
2021/12/20 07:28:53;;;;;;;13.40;7.43;;;;;;;1.31;100.00;99531.25;4992118;28;20277;-59
2021/12/20 07:31:21;;;;;;;13.93;7.50;;;;;;;1.33;100.00;99530.25;4991077;28;20189;-59
2021/12/20 07:33:49;;;;;;;13.73;7.30;;;;;;;1.32;100.00;99538.06;4991674;28;20251;-59
2021/12/20 07:36:19;;;;;;;12.27;6.97;;;;;;;1.31;100.00;99539.78;4992116;28;20291;-59
2021/12/20 07:38:46;;;;;;;12.47;6.60;;;;;;;1.38;100.00;99542.94;4991588;28;20275;-57
2021/12/20 07:41:13;;;;;;;12.43;6.40;;;;;;;1.36;100.00;99541.31;4991394;28;20742;-59
2021/12/20 07:43:41;;;;;;;11.43;6.37;;;;;;;1.41;100.00;99547.09;4991992;28;20264;-60
2021/12/20 07:46:08;;;;;;;11.23;6.70;;;;;;;1.43;100.00;99538.41;4991298;28;20405;-60
2021/12/20 07:48:36;;;;;;;16.17;9.17;;;;;;;1.44;100.00;99536.66;4991879;28;20686;-60
2021/12/20 07:51:04;;;;;;;15.43;8.73;;;;;;;1.47;100.00;99539.94;5005131;28;20284;-59
2021/12/20 07:53:31;;;;;;;14.07;7.80;;;;;;;1.52;100.00;99532.00;5026332;28;20216;-59
2021/12/20 07:55:58;;;;;;;13.37;7.53;;;;;;;1.61;100.00;99534.16;5011650;28;20618;-59
2021/12/20 07:58:25;;;;;;;11.67;6.77;;;;;;;1.63;100.00;99528.91;5011054;28;20265;-59
2021/12/20 08:00:53;;;;;;;11.73;6.93;;;;;;;1.68;100.00;99528.72;5007880;28;21091;-59
2021/12/20 08:03:20;;;;;;;14.43;9.10;;;;;;;1.70;100.00;99524.34;4990684;28;20690;-60
2021/12/20 08:05:48;;;;;;;18.17;11.13;;;;;;;1.73;100.00;99529.34;4991760;28;20229;-60
2021/12/20 08:08:15;;;;;;;18.13;10.60;;;;;;;1.70;100.00;99527.72;4991424;28;20736;-60
2021/12/20 08:10:42;;;;;;;16.57;10.20;;;;;;;1.79;100.00;99528.19;4990526;28;20192;-58
2021/12/20 08:13:09;;;;;;;16.57;9.60;;;;;;;1.82;100.00;99530.63;4991717;28;20643;-59
2021/12/20 08:15:36;;;;;;;16.60;9.70;;;;;;;1.86;100.00;99533.00;4991058;28;20209;-57
2021/12/20 08:18:04;;;;;;;16.83;9.37;;;;;;;1.90;100.00;99534.53;4994239;28;20239;-60
2021/12/20 08:20:31;;;;;;;17.43;9.57;;;;;;;1.95;100.00;99536.03;4994732;28;20221;-58
2021/12/20 08:22:58;;;;;;;14.80;7.83;;;;;;;2.05;100.00;99545.00;4994935;28;20673;-57
2021/12/20 08:25:25;;;;;;;14.87;8.87;;;;;;;2.08;100.00;99531.97;4995603;28;20683;-57
2021/12/20 08:27:51;;;;;;;27.23;12.57;;;;;;;2.13;100.00;99537.72;4995416;28;20185;-59
2021/12/20 08:30:21;;;;;;;30.33;17.90;;;;;;;2.16;100.00;99545.28;4994294;28;20197;-58
2021/12/20 08:32:48;;;;;;;30.50;17.50;;;;;;;2.20;100.00;99536.50;4995481;28;20651;-59
2021/12/20 08:35:17;;;;;;;28.63;15.00;;;;;;;2.16;100.00;99540.13;4994962;28;20208;-54
2021/12/20 08:37:44;;;;;;;25.07;14.67;;;;;;;2.15;100.00;99542.81;4995006;28;20189;-59
2021/12/20 08:40:13;;;;;;;25.20;13.73;;;;;;;2.25;100.00;99545.75;4994544;28;20185;-58
2021/12/20 08:42:42;;;;;;;29.80;14.47;;;;;;;2.32;100.00;99547.13;4995177;28;20725;-61
2021/12/20 08:45:10;;;;;;;25.10;14.03;;;;;;;2.42;100.00;99544.94;4994867;28;20197;-58
2021/12/20 08:47:37;;;;;;;25.37;12.97;;;;;;;2.46;100.00;99549.84;4994859;28;20264;-57
2021/12/20 08:50:07;;;;;;;25.53;14.07;;;;;;;2.53;100.00;99563.28;4999876;28;20192;-58
2021/12/20 08:52:35;;;;;;;29.27;15.93;;;;;;;2.51;99.29;99559.94;5014263;28;20189;-59
2021/12/20 08:55:02;;;;;;;32.23;17.50;;;;;;;2.37;98.25;99560.63;5014612;28;20193;-60
2021/12/20 08:57:28;;;;;;;28.10;15.77;;;;;;;2.42;98.32;99556.06;5014499;28;20276;-59
2021/12/20 08:59:55;;;;;;;50.77;24.30;;;;;;;2.39;99.30;99560.56;5012990;28;20192;-57
2021/12/20 09:02:22;;;;;;;28.97;16.50;;;;;;;2.44;98.82;99558.59;5007695;28;20219;-60
2021/12/20 09:04:49;;;;;;;25.47;14.93;;;;;;;2.44;98.84;99551.69;4994227;28;20272;-60
2021/12/20 09:07:16;;;;;;;27.57;14.57;;;;;;;2.40;97.93;99560.47;4994329;28;20300;-60
2021/12/20 09:09:47;;;;;;;26.03;14.73;;;;;;;2.47;98.50;99561.84;4994392;28;20185;-59
2021/12/20 09:12:17;;;;;;;25.25;15.23;;;;;;;2.60;98.19;99556.91;4993878;28;20440;-61
2021/12/20 09:14:44;;;;;;;24.37;12.97;;;;;;;2.64;97.09;99560.16;4994218;28;20209;-59
2021/12/20 09:17:11;;;;;;;24.10;14.40;;;;;;;2.70;98.07;99561.59;4994469;28;20217;-60
2021/12/20 09:19:37;;;;;;;26.13;13.90;;;;;;;2.76;97.22;99567.28;4993961;28;20269;-57
2021/12/20 09:22:06;;;;;;;25.60;13.87;;;;;;;2.81;95.99;99561.88;4993783;28;20199;-60
2021/12/20 09:24:33;;;;;;;25.93;14.00;;;;;;;2.77;94.48;99568.09;4994189;28;20186;-60
2021/12/20 09:27:02;;;;;;;23.60;14.13;;;;;;;2.73;94.05;99559.69;4994638;28;20642;-57
2021/12/20 09:29:29;;;;;;;22.13;13.10;;;;;;;2.77;95.08;99563.78;4992652;28;20682;-60
2021/12/20 09:31:57;;;;;;;27.70;14.77;;;;;;;2.76;95.17;99567.28;4993661;28;20213;-59
2021/12/20 09:34:23;;;;;;;28.17;15.07;;;;;;;2.88;94.23;99570.97;4994277;28;20210;-59
2021/12/20 09:36:52;;;;;;;32.67;16.97;;;;;;;3.00;95.43;99566.09;4993450;28;20209;-60
2021/12/20 09:39:20;;;;;;;31.43;16.17;;;;;;;3.04;95.08;99568.44;4994212;28;20295;-61
2021/12/20 09:44:38;;;;;;;27.30;15.60;;;;;;;3.14;92.10;99568.78;4983061;28;20332;-60
2021/12/20 09:47:06;;;;;;;28.67;15.47;;;;;;;3.14;93.34;99568.78;4993695;28;20219;-61
2021/12/20 09:49:33;;;;;;;28.40;16.63;;;;;;;3.23;93.14;99564.88;4993178;28;20228;-61
2021/12/20 09:52:01;;;;;;;29.83;16.00;;;;;;;3.32;92.17;99566.97;4993196;28;20183;-61
2021/12/20 09:54:29;;;;;;;29.93;16.67;;;;;;;3.33;91.87;99575.56;4992862;28;20241;-60
2021/12/20 09:56:58;;;;;;;27.43;15.83;;;;;;;3.34;92.07;99564.34;4993851;28;20209;-61
2021/12/20 09:59:27;;;;;;;27.33;15.17;;;;;;;3.39;92.55;99557.19;4993399;28;20186;-61
2021/12/20 10:01:57;;;;;;;35.37;18.20;;;;;;;3.39;91.52;99565.75;4993244;28;20197;-60
2021/12/20 10:04:25;;;;;;;32.33;16.53;;;;;;;3.40;92.87;99562.25;4992524;28;20186;-60
2021/12/20 10:06:54;;;;;;;28.47;16.73;;;;;;;3.53;91.05;99561.59;4993005;28;20221;-60
2021/12/20 10:09:26;;;;;;;31.77;16.23;;;;;;;3.53;91.17;99559.88;4993761;28;20192;-58
2021/12/20 10:12:12;;;;;;;31.37;16.47;;;;;;;3.57;91.13;99565.69;4992902;28;20209;-60
2021/12/20 10:14:53;;;;;;;28.67;15.63;;;;;;;3.64;89.60;99561.84;4992999;28;20578;-60
2021/12/20 10:17:23;;;;;;;28.17;15.47;;;;;;;3.69;89.87;99557.28;4993485;28;20209;-60
2021/12/20 10:19:50;;;;;;;25.03;14.57;;;;;;;3.79;89.42;99564.53;4991637;28;20204;-60
2021/12/20 10:22:29;;;;;;;23.27;14.47;;;;;;;3.74;88.91;99554.41;4992827;28;20186;-60
2021/12/20 10:24:57;;;;;;;28.20;16.03;;;;;;;3.70;87.01;99560.69;4993371;28;20205;-59
2021/12/20 10:27:29;;;;;;;25.03;14.90;;;;;;;3.76;88.07;99559.53;4993054;28;20197;-59
2021/12/20 10:29:56;;;;;;;26.33;15.13;;;;;;;3.86;87.35;99563.25;4992264;28;20189;-58
2021/12/20 10:32:43;;;;;;;25.13;13.83;;;;;;;3.69;87.04;99559.84;4993137;28;20200;-58
2021/12/20 10:35:35;;;;;;;27.97;15.77;;;;;;;3.60;89.00;99552.59;4993157;28;20205;-60
2021/12/20 10:38:06;;;;;;;27.43;16.23;;;;;;;3.57;88.03;99563.09;4992750;28;20209;-61
2021/12/20 10:40:35;;;;;;;29.17;15.60;;;;;;;3.53;89.08;99559.00;4992048;28;20193;-60
2021/12/20 10:43:06;;;;;;;24.17;14.73;;;;;;;3.59;88.58;99558.69;4992866;28;20243;-61
2021/12/20 10:45:33;;;;;;;29.83;15.20;;;;;;;3.61;88.18;99554.28;4992436;28;20236;-59
2021/12/20 10:48:11;;;;;;;27.07;16.10;;;;;;;3.44;89.65;99560.34;4993062;28;20239;-60
2021/12/20 10:50:42;;;;;;;27.77;16.27;;;;;;;3.41;90.18;99550.19;5002082;28;20268;-59
2021/12/20 10:53:21;;;;;;;29.23;15.90;;;;;;;3.35;92.42;99547.94;5012198;28;20193;-61
2021/12/20 10:55:52;;;;;;;25.03;15.27;;;;;;;3.52;91.51;99545.28;5010983;28;20315;-61
2021/12/20 10:58:29;;;;;;;27.23;16.37;;;;;;;3.44;90.45;99544.88;5012016;28;20200;-61
2021/12/20 11:01:22;;;;;;;30.07;16.37;;;;;;;3.43;91.25;99544.94;5011695;28;20227;-60
2021/12/20 11:04:03;;;;;;;27.07;14.97;;;;;;;3.39;90.31;99536.53;5009887;28;20867;-60
2021/12/20 11:06:56;;;;;;;27.67;15.23;;;;;;;3.48;90.22;99545.53;4991127;28;20729;-61
2021/12/20 11:09:25;;;;;;;25.17;15.60;;;;;;;3.60;90.99;99531.94;4992616;28;20204;-59
2021/12/20 11:11:53;;;;;;;25.10;15.00;;;;;;;3.73;89.88;99537.25;4991594;28;20190;-59
2021/12/20 11:14:22;;;;;;;26.87;15.13;;;;;;;3.78;90.69;99527.50;4992114;28;20629;-61
2021/12/20 11:16:50;;;;;;;22.83;13.93;;;;;;;3.75;88.23;99527.69;4992081;28;20213;-60
2021/12/20 11:19:24;;;;;;;27.20;14.83;;;;;;;3.71;90.19;99536.50;4992438;28;20192;-61
2021/12/20 11:21:57;;;;;;;26.07;15.00;;;;;;;3.90;89.51;99540.66;4991072;28;20197;-61
2021/12/20 11:24:27;;;;;;;28.70;16.03;;;;;;;3.89;89.39;99528.66;4992490;28;20189;-61
2021/12/20 11:26:55;;;;;;;25.33;14.07;;;;;;;3.77;87.77;99536.19;4992220;28;20217;-59
2021/12/20 11:29:22;;;;;;;23.60;13.83;;;;;;;3.75;89.52;99525.09;4991501;28;20193;-60
2021/12/20 11:31:51;;;;;;;26.30;14.50;;;;;;;3.74;88.49;99522.63;4991474;28;20686;-58
2021/12/20 11:34:19;;;;;;;24.30;14.57;;;;;;;3.71;89.04;99523.59;4992046;28;20213;-59
2021/12/20 11:36:47;;;;;;;28.50;15.20;;;;;;;3.74;89.38;99522.63;4991867;28;20308;-61
2021/12/20 11:39:14;;;;;;;27.60;16.10;;;;;;;3.78;89.65;99519.75;4992203;28;20198;-58